Date,TemperatureHighF,TemperatureAvgF,TemperatureLowF,DewpointHighF,DewpointAvgF,DewpointLowF,HumidityHigh,HumidityAvg,HumidityLow,PressureMaxIn,PressureMinIn,WindSpeedMaxMPH,WindSpeedAvgMPH,GustSpeedMaxMPH,PrecipitationSumIn
2013-2-1,72,57,49,42,31,24,61,40,18,0.00,40.00,11,7,18,0.00
2013-2-2,63,55,45,42,32,26,61,42,28,0.00,40.00,9,4,13,0.00
2013-2-3,61,46,37,45,38,30,95,75,48,0.00,40.00,13,5,17,0.00
2013-2-4,67,52,40,44,33,25,68,49,23,0.00,40.00,13,6,17,0.00
2013-2-5,51,44,38,42,37,29,95,77,57,0.00,40.00,14,5,18,0.00
2013-2-6,57,44,32,42,35,25,92,72,39,0.00,40.00,10,5,16,0.00
2013-2-7,51,41,35,40,36,32,91,81,57,0.00,40.00,12,4,22,0.00
2013-2-8,43,38,34,36,34,32,95,88,71,0.00,40.00,14,6,20,0.18
2013-2-9,51,40,31,35,28,20,92,68,32,0.00,40.00,11,4,17,0.14
2013-2-10,55,44,34,30,26,23,70,53,31,0.00,40.00,12,6,20,0.00
2013-2-11,57,45,37,34,28,19,70,54,22,0.00,40.00,11,6,18,0.00
2013-2-12,58,45,34,39,29,24,74,56,29,0.00,40.00,12,6,17,0.00
2013-2-13,62,48,37,41,33,27,77,58,36,0.00,40.00,11,5,16,0.00
2013-2-14,69,54,42,39,31,25,68,45,20,0.00,40.00,14,8,24,0.00
2013-2-15,75,60,50,31,29,25,46,32,17,0.00,40.00,13,7,19,0.00
2013-2-16,74,60,47,33,26,20,43,28,16,0.00,40.00,13,8,18,0.00
2013-2-17,61,48,37,38,32,25,77,57,32,0.00,40.00,10,4,14,0.00
2013-2-18,44,40,34,40,34,28,95,80,62,0.00,40.00,8,5,14,0.00
2013-2-19,48,38,32,37,35,32,100,90,57,0.00,40.00,13,6,23,0.48
2013-2-20,49,40,33,39,36,33,100,86,59,0.00,40.00,15,8,23,0.16
2013-2-21,51,42,36,39,36,31,99,80,50,0.00,40.00,14,8,23,0.01
2013-2-22,58,46,36,37,30,26,81,59,33,0.00,40.00,15,6,21,0.00
2013-2-23,51,42,37,42,37,31,100,83,63,0.00,40.00,16,8,25,0.02
2013-2-24,61,44,34,35,26,15,93,56,17,0.00,40.00,12,5,19,0.02
2013-2-25,63,48,38,39,29,19,79,50,25,0.00,40.00,13,7,21,0.00
2013-2-26,64,47,37,30,24,17,64,43,17,0.00,40.00,12,5,19,0.00
2013-2-27,68,53,41,33,21,15,48,30,13,0.00,40.00,11,6,19,0.00
2013-2-28,66,53,43,47,39,21,78,59,38,0.00,40.00,15,6,23,0.00